sensor_id;sensor_type;location;lat;lon;timestamp;P1;durP1;ratioP1;P2;durP2;ratioP2
4597;SDS011;62772;48.646;8.906;2023-07-29T00:03:58;4.03;;;2.57;;
4597;SDS011;62772;48.646;8.906;2023-07-29T00:08:59;3.67;;;2.40;;
4597;SDS011;62772;48.646;8.906;2023-07-29T00:14:02;4.57;;;2.47;;
4597;SDS011;62772;48.646;8.906;2023-07-29T00:19:03;4.07;;;2.53;;
4597;SDS011;62772;48.646;8.906;2023-07-29T00:24:03;7.73;;;3.30;;
4597;SDS011;62772;48.646;8.906;2023-07-29T00:29:04;8.77;;;3.37;;
4597;SDS011;62772;48.646;8.906;2023-07-29T00:34:04;4.43;;;2.93;;
4597;SDS011;62772;48.646;8.906;2023-07-29T00:39:05;7.20;;;3.50;;
4597;SDS011;62772;48.646;8.906;2023-07-29T00:44:05;4.40;;;3.10;;
4597;SDS011;62772;48.646;8.906;2023-07-29T00:49:06;7.93;;;3.70;;
4597;SDS011;62772;48.646;8.906;2023-07-29T00:54:06;10.17;;;3.17;;
4597;SDS011;62772;48.646;8.906;2023-07-29T00:59:07;4.33;;;2.83;;
4597;SDS011;62772;48.646;8.906;2023-07-29T01:04:08;9.40;;;3.10;;
4597;SDS011;62772;48.646;8.906;2023-07-29T01:25:10;4.10;;;2.37;;
4597;SDS011;62772;48.646;8.906;2023-07-29T01:30:10;6.93;;;3.03;;
4597;SDS011;62772;48.646;8.906;2023-07-29T01:40:19;6.43;;;2.80;;
4597;SDS011;62772;48.646;8.906;2023-07-29T01:45:24;7.30;;;2.57;;
4597;SDS011;62772;48.646;8.906;2023-07-29T01:50:29;7.13;;;3.23;;
4597;SDS011;62772;48.646;8.906;2023-07-29T01:55:29;6.33;;;2.37;;
4597;SDS011;62772;48.646;8.906;2023-07-29T02:00:30;5.40;;;2.83;;
4597;SDS011;62772;48.646;8.906;2023-07-29T02:05:31;8.30;;;3.03;;
4597;SDS011;62772;48.646;8.906;2023-07-29T02:10:31;6.70;;;2.70;;
4597;SDS011;62772;48.646;8.906;2023-07-29T02:15:32;3.40;;;2.10;;
4597;SDS011;62772;48.646;8.906;2023-07-29T02:20:32;4.40;;;2.70;;
4597;SDS011;62772;48.646;8.906;2023-07-29T02:25:35;5.60;;;2.90;;
4597;SDS011;62772;48.646;8.906;2023-07-29T02:30:36;8.77;;;3.40;;
4597;SDS011;62772;48.646;8.906;2023-07-29T02:35:37;9.33;;;3.57;;
4597;SDS011;62772;48.646;8.906;2023-07-29T02:40:37;6.20;;;3.10;;
4597;SDS011;62772;48.646;8.906;2023-07-29T02:45:38;5.90;;;3.47;;
4597;SDS011;62772;48.646;8.906;2023-07-29T02:50:38;7.93;;;3.30;;
4597;SDS011;62772;48.646;8.906;2023-07-29T02:55:39;5.23;;;3.17;;
4597;SDS011;62772;48.646;8.906;2023-07-29T03:00:41;14.20;;;4.13;;
4597;SDS011;62772;48.646;8.906;2023-07-29T03:05:44;5.00;;;3.30;;
4597;SDS011;62772;48.646;8.906;2023-07-29T03:10:45;4.63;;;3.10;;
4597;SDS011;62772;48.646;8.906;2023-07-29T03:15:45;5.00;;;3.40;;
4597;SDS011;62772;48.646;8.906;2023-07-29T03:20:46;6.53;;;3.43;;
4597;SDS011;62772;48.646;8.906;2023-07-29T03:25:49;8.43;;;3.70;;
4597;SDS011;62772;48.646;8.906;2023-07-29T03:30:51;4.97;;;3.20;;
4597;SDS011;62772;48.646;8.906;2023-07-29T03:35:52;5.73;;;3.37;;
4597;SDS011;62772;48.646;8.906;2023-07-29T03:40:53;7.97;;;3.60;;
4597;SDS011;62772;48.646;8.906;2023-07-29T03:45:54;6.97;;;3.50;;
4597;SDS011;62772;48.646;8.906;2023-07-29T03:50:55;5.10;;;3.73;;
4597;SDS011;62772;48.646;8.906;2023-07-29T03:55:55;10.73;;;3.80;;
4597;SDS011;62772;48.646;8.906;2023-07-29T04:00:56;6.23;;;3.63;;
4597;SDS011;62772;48.646;8.906;2023-07-29T04:05:57;10.10;;;3.90;;
4597;SDS011;62772;48.646;8.906;2023-07-29T04:10:57;6.37;;;4.10;;
4597;SDS011;62772;48.646;8.906;2023-07-29T04:15:58;7.80;;;3.93;;
4597;SDS011;62772;48.646;8.906;2023-07-29T04:20:58;6.00;;;4.07;;
4597;SDS011;62772;48.646;8.906;2023-07-29T04:25:59;7.23;;;4.13;;
4597;SDS011;62772;48.646;8.906;2023-07-29T04:30:59;11.33;;;4.57;;
4597;SDS011;62772;48.646;8.906;2023-07-29T04:36:00;6.80;;;4.10;;
4597;SDS011;62772;48.646;8.906;2023-07-29T04:41:00;8.77;;;4.80;;
4597;SDS011;62772;48.646;8.906;2023-07-29T04:46:02;11.60;;;5.00;;
4597;SDS011;62772;48.646;8.906;2023-07-29T04:51:03;7.47;;;4.63;;
4597;SDS011;62772;48.646;8.906;2023-07-29T04:56:04;10.17;;;4.80;;
4597;SDS011;62772;48.646;8.906;2023-07-29T05:01:05;7.10;;;4.27;;
4597;SDS011;62772;48.646;8.906;2023-07-29T05:06:06;9.30;;;4.47;;
4597;SDS011;62772;48.646;8.906;2023-07-29T05:11:06;9.30;;;3.90;;
4597;SDS011;62772;48.646;8.906;2023-07-29T05:16:07;5.80;;;3.80;;
4597;SDS011;62772;48.646;8.906;2023-07-29T05:21:08;7.43;;;3.40;;
4597;SDS011;62772;48.646;8.906;2023-07-29T05:26:11;7.50;;;3.97;;
4597;SDS011;62772;48.646;8.906;2023-07-29T05:31:11;6.13;;;3.00;;
4597;SDS011;62772;48.646;8.906;2023-07-29T05:36:12;4.70;;;3.13;;
4597;SDS011;62772;48.646;8.906;2023-07-29T05:41:12;7.53;;;3.13;;
4597;SDS011;62772;48.646;8.906;2023-07-29T05:46:13;4.10;;;2.80;;
4597;SDS011;62772;48.646;8.906;2023-07-29T05:51:13;7.13;;;3.53;;
4597;SDS011;62772;48.646;8.906;2023-07-29T05:56:14;6.17;;;3.70;;
4597;SDS011;62772;48.646;8.906;2023-07-29T06:01:15;4.63;;;3.40;;
4597;SDS011;62772;48.646;8.906;2023-07-29T06:06:15;6.20;;;4.00;;
4597;SDS011;62772;48.646;8.906;2023-07-29T06:11:16;6.73;;;3.80;;
4597;SDS011;62772;48.646;8.906;2023-07-29T06:16:16;5.93;;;3.60;;
4597;SDS011;62772;48.646;8.906;2023-07-29T06:21:18;6.40;;;3.90;;
4597;SDS011;62772;48.646;8.906;2023-07-29T06:26:20;5.30;;;3.30;;
4597;SDS011;62772;48.646;8.906;2023-07-29T06:31:20;6.30;;;3.60;;
4597;SDS011;62772;48.646;8.906;2023-07-29T06:36:21;6.00;;;3.80;;
4597;SDS011;62772;48.646;8.906;2023-07-29T06:41:21;11.47;;;4.10;;
4597;SDS011;62772;48.646;8.906;2023-07-29T06:46:22;5.83;;;3.30;;
4597;SDS011;62772;48.646;8.906;2023-07-29T06:51:22;5.80;;;2.93;;
4597;SDS011;62772;48.646;8.906;2023-07-29T06:56:23;3.80;;;2.80;;
4597;SDS011;62772;48.646;8.906;2023-07-29T07:01:23;4.00;;;2.33;;
4597;SDS011;62772;48.646;8.906;2023-07-29T07:06:24;4.90;;;2.50;;
4597;SDS011;62772;48.646;8.906;2023-07-29T07:11:24;6.80;;;2.07;;
4597;SDS011;62772;48.646;8.906;2023-07-29T07:16:25;5.27;;;2.67;;
4597;SDS011;62772;48.646;8.906;2023-07-29T07:21:25;5.13;;;2.80;;
4597;SDS011;62772;48.646;8.906;2023-07-29T07:26:26;4.73;;;2.80;;
4597;SDS011;62772;48.646;8.906;2023-07-29T07:31:26;5.00;;;2.90;;
4597;SDS011;62772;48.646;8.906;2023-07-29T07:36:26;4.50;;;3.03;;
4597;SDS011;62772;48.646;8.906;2023-07-29T07:41:27;5.07;;;2.97;;
4597;SDS011;62772;48.646;8.906;2023-07-29T07:46:28;5.27;;;2.90;;
4597;SDS011;62772;48.646;8.906;2023-07-29T07:51:29;8.10;;;3.00;;
4597;SDS011;62772;48.646;8.906;2023-07-29T07:56:29;4.40;;;2.40;;
4597;SDS011;62772;48.646;8.906;2023-07-29T08:01:39;5.10;;;2.33;;
4597;SDS011;62772;48.646;8.906;2023-07-29T08:06:39;4.00;;;2.80;;
4597;SDS011;62772;48.646;8.906;2023-07-29T08:11:40;5.87;;;2.77;;
4597;SDS011;62772;48.646;8.906;2023-07-29T08:16:40;6.80;;;2.93;;
4597;SDS011;62772;48.646;8.906;2023-07-29T08:21:41;6.40;;;2.80;;
4597;SDS011;62772;48.646;8.906;2023-07-29T08:26:41;4.77;;;2.70;;
4597;SDS011;62772;48.646;8.906;2023-07-29T08:31:42;4.60;;;2.97;;
4597;SDS011;62772;48.646;8.906;2023-07-29T08:36:42;4.70;;;3.40;;
4597;SDS011;62772;48.646;8.906;2023-07-29T08:41:49;6.27;;;2.80;;
4597;SDS011;62772;48.646;8.906;2023-07-29T08:47:01;4.00;;;2.43;;
4597;SDS011;62772;48.646;8.906;2023-07-29T08:52:01;4.93;;;2.70;;
4597;SDS011;62772;48.646;8.906;2023-07-29T08:57:04;5.23;;;2.60;;
4597;SDS011;62772;48.646;8.906;2023-07-29T09:02:05;5.00;;;3.00;;
4597;SDS011;62772;48.646;8.906;2023-07-29T09:07:06;7.50;;;2.40;;
4597;SDS011;62772;48.646;8.906;2023-07-29T09:12:07;3.87;;;2.33;;
4597;SDS011;62772;48.646;8.906;2023-07-29T09:17:08;3.97;;;2.10;;
4597;SDS011;62772;48.646;8.906;2023-07-29T09:22:17;3.97;;;2.23;;
4597;SDS011;62772;48.646;8.906;2023-07-29T09:27:28;3.50;;;2.50;;
4597;SDS011;62772;48.646;8.906;2023-07-29T09:32:32;3.30;;;2.30;;
4597;SDS011;62772;48.646;8.906;2023-07-29T09:37:32;3.80;;;2.50;;
4597;SDS011;62772;48.646;8.906;2023-07-29T09:42:33;3.73;;;2.30;;
4597;SDS011;62772;48.646;8.906;2023-07-29T09:47:33;5.47;;;2.43;;
4597;SDS011;62772;48.646;8.906;2023-07-29T09:52:34;3.40;;;2.40;;
4597;SDS011;62772;48.646;8.906;2023-07-29T09:57:34;4.20;;;2.30;;
4597;SDS011;62772;48.646;8.906;2023-07-29T10:02:37;3.93;;;2.43;;
4597;SDS011;62772;48.646;8.906;2023-07-29T10:07:42;4.10;;;2.70;;
4597;SDS011;62772;48.646;8.906;2023-07-29T10:12:43;4.27;;;2.50;;
4597;SDS011;62772;48.646;8.906;2023-07-29T10:17:44;4.10;;;2.17;;
4597;SDS011;62772;48.646;8.906;2023-07-29T10:22:47;3.70;;;2.17;;
4597;SDS011;62772;48.646;8.906;2023-07-29T10:28:07;3.20;;;2.10;;
4597;SDS011;62772;48.646;8.906;2023-07-29T10:33:11;4.20;;;2.40;;
4597;SDS011;62772;48.646;8.906;2023-07-29T10:38:11;2.90;;;1.93;;
4597;SDS011;62772;48.646;8.906;2023-07-29T10:43:13;3.27;;;2.10;;
4597;SDS011;62772;48.646;8.906;2023-07-29T10:53:35;3.07;;;2.00;;
4597;SDS011;62772;48.646;8.906;2023-07-29T10:58:37;3.80;;;2.50;;
4597;SDS011;62772;48.646;8.906;2023-07-29T11:03:37;3.30;;;2.13;;
4597;SDS011;62772;48.646;8.906;2023-07-29T11:08:38;3.73;;;2.07;;
4597;SDS011;62772;48.646;8.906;2023-07-29T11:13:38;3.33;;;2.20;;
4597;SDS011;62772;48.646;8.906;2023-07-29T11:18:39;5.10;;;2.38;;
4597;SDS011;62772;48.646;8.906;2023-07-29T11:23:42;2.93;;;2.03;;
4597;SDS011;62772;48.646;8.906;2023-07-29T11:28:42;5.50;;;2.10;;
4597;SDS011;62772;48.646;8.906;2023-07-29T11:33:42;3.00;;;2.10;;
4597;SDS011;62772;48.646;8.906;2023-07-29T11:38:43;3.92;;;1.92;;
4597;SDS011;62772;48.646;8.906;2023-07-29T11:43:44;4.15;;;1.90;;
4597;SDS011;62772;48.646;8.906;2023-07-29T11:48:44;4.85;;;2.38;;
4597;SDS011;62772;48.646;8.906;2023-07-29T11:53:45;5.65;;;2.33;;
4597;SDS011;62772;48.646;8.906;2023-07-29T11:58:45;3.90;;;2.17;;
4597;SDS011;62772;48.646;8.906;2023-07-29T12:03:46;4.28;;;2.25;;
4597;SDS011;62772;48.646;8.906;2023-07-29T12:08:47;4.13;;;2.50;;
4597;SDS011;62772;48.646;8.906;2023-07-29T12:13:47;3.40;;;2.10;;
4597;SDS011;62772;48.646;8.906;2023-07-29T12:18:49;3.60;;;2.53;;
4597;SDS011;62772;48.646;8.906;2023-07-29T12:23:50;2.85;;;2.05;;
4597;SDS011;62772;48.646;8.906;2023-07-29T12:28:51;3.90;;;1.90;;
4597;SDS011;62772;48.646;8.906;2023-07-29T12:33:55;3.28;;;2.08;;
4597;SDS011;62772;48.646;8.906;2023-07-29T12:38:58;5.10;;;1.90;;
4597;SDS011;62772;48.646;8.906;2023-07-29T12:43:59;2.78;;;1.90;;
4597;SDS011;62772;48.646;8.906;2023-07-29T12:49:00;6.07;;;2.20;;
4597;SDS011;62772;48.646;8.906;2023-07-29T12:54:00;3.40;;;1.80;;
4597;SDS011;62772;48.646;8.906;2023-07-29T12:59:01;5.80;;;1.90;;
4597;SDS011;62772;48.646;8.906;2023-07-29T13:04:03;2.83;;;1.80;;
4597;SDS011;62772;48.646;8.906;2023-07-29T13:09:03;2.78;;;1.70;;
4597;SDS011;62772;48.646;8.906;2023-07-29T13:14:05;3.60;;;2.10;;
4597;SDS011;62772;48.646;8.906;2023-07-29T13:19:05;8.13;;;2.05;;
4597;SDS011;62772;48.646;8.906;2023-07-29T13:24:06;4.72;;;2.15;;
4597;SDS011;62772;48.646;8.906;2023-07-29T13:29:06;3.22;;;2.13;;
4597;SDS011;62772;48.646;8.906;2023-07-29T13:34:07;3.28;;;2.03;;
4597;SDS011;62772;48.646;8.906;2023-07-29T13:39:07;3.20;;;1.98;;
4597;SDS011;62772;48.646;8.906;2023-07-29T13:44:08;3.38;;;2.13;;
4597;SDS011;62772;48.646;8.906;2023-07-29T13:49:08;3.42;;;2.05;;
4597;SDS011;62772;48.646;8.906;2023-07-29T13:54:09;3.70;;;2.20;;
4597;SDS011;62772;48.646;8.906;2023-07-29T13:59:09;4.53;;;1.85;;
4597;SDS011;62772;48.646;8.906;2023-07-29T14:04:09;3.55;;;2.20;;
4597;SDS011;62772;48.646;8.906;2023-07-29T14:09:10;4.13;;;2.20;;
4597;SDS011;62772;48.646;8.906;2023-07-29T14:14:10;4.05;;;2.25;;
4597;SDS011;62772;48.646;8.906;2023-07-29T14:19:11;2.78;;;1.85;;
4597;SDS011;62772;48.646;8.906;2023-07-29T14:24:11;2.90;;;1.92;;
4597;SDS011;62772;48.646;8.906;2023-07-29T14:29:12;2.72;;;1.80;;
4597;SDS011;62772;48.646;8.906;2023-07-29T14:34:12;4.65;;;2.30;;
4597;SDS011;62772;48.646;8.906;2023-07-29T14:39:13;2.67;;;2.03;;
4597;SDS011;62772;48.646;8.906;2023-07-29T14:44:13;2.92;;;1.98;;
4597;SDS011;62772;48.646;8.906;2023-07-29T14:49:14;3.78;;;2.20;;
4597;SDS011;62772;48.646;8.906;2023-07-29T14:54:15;3.30;;;1.90;;
4597;SDS011;62772;48.646;8.906;2023-07-29T14:59:15;3.97;;;2.22;;
4597;SDS011;62772;48.646;8.906;2023-07-29T15:04:16;2.88;;;1.90;;
4597;SDS011;62772;48.646;8.906;2023-07-29T15:09:17;3.72;;;1.88;;
4597;SDS011;62772;48.646;8.906;2023-07-29T15:14:18;5.53;;;2.10;;
4597;SDS011;62772;48.646;8.906;2023-07-29T15:19:18;4.32;;;2.30;;
4597;SDS011;62772;48.646;8.906;2023-07-29T15:24:19;5.05;;;2.17;;
4597;SDS011;62772;48.646;8.906;2023-07-29T15:29:19;3.58;;;2.00;;
4597;SDS011;62772;48.646;8.906;2023-07-29T15:34:20;4.22;;;2.00;;
4597;SDS011;62772;48.646;8.906;2023-07-29T15:39:23;4.15;;;2.33;;
4597;SDS011;62772;48.646;8.906;2023-07-29T15:44:24;3.83;;;2.40;;
4597;SDS011;62772;48.646;8.906;2023-07-29T15:49:24;4.95;;;2.63;;
4597;SDS011;62772;48.646;8.906;2023-07-29T15:54:25;3.25;;;1.88;;
4597;SDS011;62772;48.646;8.906;2023-07-29T15:59:25;3.00;;;1.90;;
4597;SDS011;62772;48.646;8.906;2023-07-29T16:04:26;3.13;;;1.90;;
4597;SDS011;62772;48.646;8.906;2023-07-29T16:09:26;3.35;;;2.33;;
4597;SDS011;62772;48.646;8.906;2023-07-29T16:14:27;4.78;;;2.38;;
4597;SDS011;62772;48.646;8.906;2023-07-29T16:19:27;4.38;;;2.50;;
4597;SDS011;62772;48.646;8.906;2023-07-29T16:24:28;3.58;;;2.13;;
4597;SDS011;62772;48.646;8.906;2023-07-29T16:29:29;3.38;;;2.10;;
4597;SDS011;62772;48.646;8.906;2023-07-29T16:34:29;2.95;;;2.22;;
4597;SDS011;62772;48.646;8.906;2023-07-29T16:39:30;4.00;;;2.47;;
4597;SDS011;62772;48.646;8.906;2023-07-29T16:44:30;4.63;;;2.47;;
4597;SDS011;62772;48.646;8.906;2023-07-29T16:49:30;3.40;;;2.20;;
4597;SDS011;62772;48.646;8.906;2023-07-29T16:54:31;4.70;;;2.47;;
4597;SDS011;62772;48.646;8.906;2023-07-29T16:59:31;3.78;;;2.40;;
4597;SDS011;62772;48.646;8.906;2023-07-29T17:04:32;10.03;;;4.07;;
4597;SDS011;62772;48.646;8.906;2023-07-29T17:09:34;7.20;;;4.00;;
4597;SDS011;62772;48.646;8.906;2023-07-29T17:14:34;7.03;;;3.73;;
4597;SDS011;62772;48.646;8.906;2023-07-29T17:19:35;7.57;;;3.43;;
4597;SDS011;62772;48.646;8.906;2023-07-29T17:24:36;10.90;;;3.77;;
4597;SDS011;62772;48.646;8.906;2023-07-29T17:29:36;8.80;;;4.20;;
4597;SDS011;62772;48.646;8.906;2023-07-29T17:34:37;4.63;;;3.20;;
4597;SDS011;62772;48.646;8.906;2023-07-29T17:39:40;4.57;;;3.20;;
4597;SDS011;62772;48.646;8.906;2023-07-29T17:44:41;6.17;;;3.60;;
4597;SDS011;62772;48.646;8.906;2023-07-29T17:49:41;5.27;;;3.30;;
4597;SDS011;62772;48.646;8.906;2023-07-29T17:54:42;5.80;;;3.10;;
4597;SDS011;62772;48.646;8.906;2023-07-29T17:59:42;5.93;;;2.93;;
4597;SDS011;62772;48.646;8.906;2023-07-29T18:04:44;5.50;;;3.00;;
4597;SDS011;62772;48.646;8.906;2023-07-29T18:09:46;4.17;;;2.73;;
4597;SDS011;62772;48.646;8.906;2023-07-29T18:14:47;5.87;;;3.50;;
4597;SDS011;62772;48.646;8.906;2023-07-29T18:19:48;4.53;;;3.17;;
4597;SDS011;62772;48.646;8.906;2023-07-29T18:24:48;5.70;;;3.20;;
4597;SDS011;62772;48.646;8.906;2023-07-29T18:29:49;6.70;;;3.20;;
4597;SDS011;62772;48.646;8.906;2023-07-29T18:34:49;4.57;;;3.13;;
4597;SDS011;62772;48.646;8.906;2023-07-29T18:39:50;5.63;;;3.10;;
4597;SDS011;62772;48.646;8.906;2023-07-29T18:44:50;7.40;;;3.73;;
4597;SDS011;62772;48.646;8.906;2023-07-29T18:49:50;6.57;;;3.60;;
4597;SDS011;62772;48.646;8.906;2023-07-29T18:54:51;6.10;;;3.77;;
4597;SDS011;62772;48.646;8.906;2023-07-29T18:59:51;5.10;;;3.70;;
4597;SDS011;62772;48.646;8.906;2023-07-29T19:04:53;5.40;;;3.40;;
4597;SDS011;62772;48.646;8.906;2023-07-29T19:09:53;7.20;;;4.00;;
4597;SDS011;62772;48.646;8.906;2023-07-29T19:14:57;6.47;;;3.77;;
4597;SDS011;62772;48.646;8.906;2023-07-29T19:19:58;5.90;;;3.90;;
4597;SDS011;62772;48.646;8.906;2023-07-29T19:24:58;13.30;;;4.70;;
4597;SDS011;62772;48.646;8.906;2023-07-29T19:29:59;5.87;;;4.10;;
4597;SDS011;62772;48.646;8.906;2023-07-29T19:35:00;6.60;;;4.17;;
4597;SDS011;62772;48.646;8.906;2023-07-29T19:40:00;6.60;;;4.53;;
4597;SDS011;62772;48.646;8.906;2023-07-29T19:45:00;7.27;;;4.60;;
4597;SDS011;62772;48.646;8.906;2023-07-29T19:50:01;7.10;;;4.70;;
4597;SDS011;62772;48.646;8.906;2023-07-29T19:55:01;6.20;;;4.20;;
4597;SDS011;62772;48.646;8.906;2023-07-29T20:00:03;7.50;;;4.40;;
4597;SDS011;62772;48.646;8.906;2023-07-29T20:05:05;8.30;;;4.83;;
4597;SDS011;62772;48.646;8.906;2023-07-29T20:10:06;7.40;;;4.50;;
4597;SDS011;62772;48.646;8.906;2023-07-29T20:15:07;5.57;;;3.90;;
4597;SDS011;62772;48.646;8.906;2023-07-29T20:20:08;7.90;;;4.70;;
4597;SDS011;62772;48.646;8.906;2023-07-29T20:25:09;6.20;;;3.90;;
4597;SDS011;62772;48.646;8.906;2023-07-29T20:30:09;7.93;;;4.77;;
4597;SDS011;62772;48.646;8.906;2023-07-29T20:35:10;7.10;;;4.23;;
4597;SDS011;62772;48.646;8.906;2023-07-29T20:40:11;7.80;;;4.70;;
4597;SDS011;62772;48.646;8.906;2023-07-29T20:45:12;11.13;;;5.70;;
4597;SDS011;62772;48.646;8.906;2023-07-29T20:50:12;15.50;;;7.40;;
4597;SDS011;62772;48.646;8.906;2023-07-29T20:55:13;27.97;;;12.17;;
4597;SDS011;62772;48.646;8.906;2023-07-29T21:00:13;79.17;;;31.37;;
4597;SDS011;62772;48.646;8.906;2023-07-29T21:05:14;29.30;;;14.00;;
4597;SDS011;62772;48.646;8.906;2023-07-29T21:10:14;19.53;;;9.67;;
4597;SDS011;62772;48.646;8.906;2023-07-29T21:15:15;13.00;;;7.80;;
4597;SDS011;62772;48.646;8.906;2023-07-29T21:20:15;9.00;;;5.70;;
4597;SDS011;62772;48.646;8.906;2023-07-29T21:25:16;7.20;;;4.97;;
4597;SDS011;62772;48.646;8.906;2023-07-29T21:30:16;6.60;;;5.13;;
4597;SDS011;62772;48.646;8.906;2023-07-29T21:35:17;9.03;;;5.73;;
4597;SDS011;62772;48.646;8.906;2023-07-29T21:40:18;9.93;;;5.90;;
4597;SDS011;62772;48.646;8.906;2023-07-29T21:45:18;7.40;;;5.03;;
4597;SDS011;62772;48.646;8.906;2023-07-29T21:50:19;10.10;;;5.47;;
4597;SDS011;62772;48.646;8.906;2023-07-29T21:55:20;8.10;;;5.40;;
4597;SDS011;62772;48.646;8.906;2023-07-29T22:00:20;8.10;;;5.17;;
4597;SDS011;62772;48.646;8.906;2023-07-29T22:05:21;8.13;;;5.37;;
4597;SDS011;62772;48.646;8.906;2023-07-29T22:10:21;9.53;;;5.67;;
4597;SDS011;62772;48.646;8.906;2023-07-29T22:15:22;11.60;;;5.60;;
4597;SDS011;62772;48.646;8.906;2023-07-29T22:20:22;7.80;;;5.20;;
4597;SDS011;62772;48.646;8.906;2023-07-29T22:25:22;7.80;;;5.30;;
4597;SDS011;62772;48.646;8.906;2023-07-29T22:30:23;7.50;;;5.10;;
4597;SDS011;62772;48.646;8.906;2023-07-29T22:35:24;9.33;;;5.60;;
4597;SDS011;62772;48.646;8.906;2023-07-29T22:40:24;9.80;;;5.30;;
4597;SDS011;62772;48.646;8.906;2023-07-29T22:45:25;7.20;;;5.10;;
4597;SDS011;62772;48.646;8.906;2023-07-29T22:50:25;15.23;;;6.03;;
4597;SDS011;62772;48.646;8.906;2023-07-29T22:55:25;9.47;;;6.40;;
4597;SDS011;62772;48.646;8.906;2023-07-29T23:00:26;10.17;;;6.20;;
4597;SDS011;62772;48.646;8.906;2023-07-29T23:05:26;8.03;;;5.10;;
4597;SDS011;62772;48.646;8.906;2023-07-29T23:10:27;9.20;;;5.77;;
4597;SDS011;62772;48.646;8.906;2023-07-29T23:15:28;7.73;;;5.20;;
4597;SDS011;62772;48.646;8.906;2023-07-29T23:20:33;9.93;;;5.20;;
4597;SDS011;62772;48.646;8.906;2023-07-29T23:25:34;9.23;;;5.67;;
4597;SDS011;62772;48.646;8.906;2023-07-29T23:30:35;8.27;;;5.00;;
4597;SDS011;62772;48.646;8.906;2023-07-29T23:35:37;9.10;;;5.10;;
4597;SDS011;62772;48.646;8.906;2023-07-29T23:40:38;9.13;;;5.33;;
4597;SDS011;62772;48.646;8.906;2023-07-29T23:45:38;8.10;;;5.00;;
4597;SDS011;62772;48.646;8.906;2023-07-29T23:50:39;6.70;;;5.13;;
4597;SDS011;62772;48.646;8.906;2023-07-29T23:55:40;7.70;;;5.33;;
